createdAt,value
2018-04-29T00:01:25.975Z,24.23
2018-04-29T00:03:51.768Z,23.90
2018-04-29T00:06:17.575Z,25.77
2018-04-29T00:08:43.392Z,17.33
2018-04-29T00:11:09.194Z,18.13
2018-04-29T00:13:34.994Z,16.00
2018-04-29T00:16:00.800Z,18.63
2018-04-29T00:18:26.596Z,21.53
2018-04-29T00:20:52.402Z,17.47
2018-04-29T00:23:18.237Z,17.77
2018-04-29T00:25:44.018Z,22.73
2018-04-29T00:28:09.792Z,19.67
2018-04-29T00:30:35.621Z,19.70
2018-04-29T00:33:01.409Z,21.73
2018-04-29T00:35:27.196Z,27.80
2018-04-29T00:37:52.984Z,30.50
2018-04-29T00:40:18.772Z,20.37
2018-04-29T00:42:44.573Z,27.00
2018-04-29T00:45:10.398Z,30.73
2018-04-29T00:47:36.176Z,35.07
2018-04-29T00:50:01.994Z,31.00
2018-04-29T00:52:27.790Z,25.63
2018-04-29T00:54:53.569Z,25.23
2018-04-29T00:57:19.365Z,32.10
2018-04-29T00:59:45.200Z,19.90
2018-04-29T01:02:11.089Z,40.83
2018-04-29T01:04:36.892Z,40.80
2018-04-29T01:07:02.705Z,29.77
2018-04-29T01:09:28.501Z,36.77
2018-04-29T01:11:54.429Z,28.20
2018-04-29T01:14:20.213Z,22.83
2018-04-29T01:16:46.009Z,36.50
2018-04-29T01:19:11.818Z,47.17
2018-04-29T01:21:37.595Z,47.57
2018-04-29T01:24:03.389Z,35.37
2018-04-29T01:26:29.181Z,37.63
2018-04-29T01:28:54.976Z,38.00
2018-04-29T01:31:20.757Z,49.70
2018-04-29T01:33:46.577Z,22.40
2018-04-29T01:36:12.355Z,24.10
2018-04-29T01:38:38.142Z,21.87
2018-04-29T01:41:03.965Z,36.50
2018-04-29T01:43:29.745Z,23.43
2018-04-29T01:45:55.540Z,22.97
2018-04-29T01:48:21.576Z,26.90
2018-04-29T01:50:47.389Z,27.20
2018-04-29T01:53:13.175Z,25.83
2018-04-29T01:55:39.121Z,27.20
2018-04-29T01:58:04.927Z,23.10
2018-04-29T02:00:30.711Z,24.37
2018-04-29T02:02:56.529Z,23.87
2018-04-29T02:05:22.325Z,19.80
2018-04-29T02:07:48.303Z,20.00
2018-04-29T02:10:14.094Z,19.00
2018-04-29T02:12:39.882Z,23.67
2018-04-29T02:15:05.686Z,20.37
2018-04-29T02:17:31.480Z,23.13
2018-04-29T02:19:57.253Z,21.43
2018-04-29T02:22:23.053Z,19.43
2018-04-29T02:24:48.864Z,27.20
2018-04-29T02:27:14.652Z,22.23
2018-04-29T02:29:40.427Z,25.30
2018-04-29T02:32:06.305Z,24.80
2018-04-29T02:34:32.084Z,23.30
2018-04-29T02:36:57.873Z,24.93
2018-04-29T02:39:23.686Z,20.87
2018-04-29T02:41:49.461Z,30.30
2018-04-29T02:44:15.231Z,23.63
2018-04-29T02:46:41.052Z,22.50
2018-04-29T02:49:06.840Z,22.07
2018-04-29T02:51:32.614Z,25.83
2018-04-29T02:53:58.409Z,21.80
2018-04-29T02:56:24.199Z,26.10
2018-04-29T02:58:49.988Z,23.77
2018-04-29T03:01:15.795Z,22.97
2018-04-29T03:03:41.570Z,25.27
2018-04-29T03:06:07.493Z,23.80
2018-04-29T03:08:33.275Z,22.27
2018-04-29T03:10:59.057Z,24.80
2018-04-29T03:13:24.842Z,22.67
2018-04-29T03:15:50.613Z,21.23
2018-04-29T03:18:16.408Z,27.47
2018-04-29T03:20:42.181Z,24.53
2018-04-29T03:23:08.000Z,30.00
2018-04-29T03:25:33.785Z,25.17
2018-04-29T03:27:59.590Z,23.27
2018-04-29T03:30:25.397Z,22.87
2018-04-29T03:32:51.181Z,26.63
2018-04-29T03:35:16.949Z,29.90
2018-04-29T03:37:42.782Z,25.53
2018-04-29T03:40:08.561Z,25.87
2018-04-29T03:42:34.358Z,29.90
2018-04-29T03:45:00.173Z,27.70
2018-04-29T03:47:25.950Z,30.47
2018-04-29T03:49:51.773Z,28.33
2018-04-29T03:52:17.574Z,28.40
2018-04-29T03:54:43.341Z,28.10
2018-04-29T04:00:17.106Z,26.90
2018-04-29T04:02:55.419Z,27.10
2018-04-29T04:05:21.201Z,28.00
2018-04-29T04:07:46.981Z,24.80
2018-04-29T04:10:12.772Z,25.43
2018-04-29T04:12:38.549Z,21.00
2018-04-29T04:15:04.325Z,25.17
2018-04-29T04:17:30.122Z,26.07
2018-04-29T04:19:55.900Z,20.73
2018-04-29T04:22:21.676Z,18.70
2018-04-29T04:24:47.473Z,21.80
2018-04-29T04:27:13.252Z,25.70
2018-04-29T04:29:39.061Z,26.97
2018-04-29T04:32:04.937Z,29.07
2018-04-29T04:34:30.702Z,31.57
2018-04-29T04:36:56.488Z,32.40
2018-04-29T04:39:22.292Z,24.53
2018-04-29T04:41:48.066Z,23.60
2018-04-29T04:44:13.841Z,23.10
2018-04-29T04:46:39.621Z,25.27
2018-04-29T04:49:05.404Z,25.00
2018-04-29T04:51:31.287Z,27.53
2018-04-29T04:53:57.078Z,30.83
2018-04-29T04:56:22.865Z,23.63
2018-04-29T04:58:48.699Z,22.90
2018-04-29T05:01:14.479Z,29.23
2018-04-29T05:03:40.266Z,35.17
2018-04-29T05:06:06.072Z,36.07
2018-04-29T05:08:31.846Z,24.13
2018-04-29T05:10:57.641Z,26.23
2018-04-29T05:13:23.442Z,31.77
2018-04-29T05:15:49.234Z,27.50
2018-04-29T05:18:15.021Z,27.30
2018-04-29T05:20:40.909Z,36.43
2018-04-29T05:23:06.680Z,30.30
2018-04-29T05:25:32.458Z,29.57
2018-04-29T05:27:58.265Z,31.13
2018-04-29T05:30:24.064Z,28.50
2018-04-29T05:32:49.855Z,23.80
2018-04-29T05:35:15.676Z,46.23
2018-04-29T05:37:41.422Z,68.33
2018-04-29T05:40:07.239Z,53.97
2018-04-29T05:42:33.057Z,50.20
2018-04-29T05:44:58.842Z,40.97
2018-04-29T05:47:24.622Z,35.00
2018-04-29T05:49:50.484Z,43.10
2018-04-29T05:52:16.193Z,64.97
2018-04-29T05:54:41.985Z,86.80
2018-04-29T05:57:07.758Z,36.90
2018-04-29T05:59:33.544Z,57.90
2018-04-29T06:01:59.379Z,31.13
2018-04-29T06:04:25.157Z,32.90
2018-04-29T06:06:50.958Z,41.17
2018-04-29T06:09:16.765Z,38.73
2018-04-29T06:11:42.562Z,41.43
2018-04-29T06:14:08.394Z,49.80
2018-04-29T06:16:34.169Z,30.67
2018-04-29T06:18:59.949Z,45.87
2018-04-29T06:21:25.729Z,41.57
2018-04-29T06:23:51.833Z,40.77
2018-04-29T06:26:17.720Z,33.43
2018-04-29T06:28:43.441Z,21.90
2018-04-29T06:31:09.262Z,19.70
2018-04-29T06:33:35.043Z,22.90
2018-04-29T06:36:00.824Z,30.37
2018-04-29T06:38:26.632Z,31.97
2018-04-29T06:40:52.406Z,33.27
2018-04-29T06:43:18.197Z,28.57
2018-04-29T06:45:44.018Z,23.27
2018-04-29T06:48:09.818Z,22.67
2018-04-29T06:50:35.600Z,28.30
2018-04-29T06:53:01.411Z,21.00
2018-04-29T06:55:27.203Z,19.30
2018-04-29T06:57:52.988Z,25.90
2018-04-29T07:00:18.774Z,19.00
2018-04-29T07:02:44.575Z,20.90
2018-04-29T07:05:10.354Z,24.20
2018-04-29T07:07:36.126Z,23.37
2018-04-29T07:10:02.140Z,22.80
2018-04-29T07:12:27.931Z,21.10
2018-04-29T07:14:53.707Z,22.03
2018-04-29T07:17:19.522Z,19.73
2018-04-29T07:19:45.342Z,23.10
2018-04-29T07:22:12.009Z,17.10
2018-04-29T07:24:37.946Z,20.93
2018-04-29T07:27:03.785Z,22.37
2018-04-29T07:29:29.585Z,25.07
2018-04-29T07:31:55.386Z,16.07
2018-04-29T07:34:21.485Z,33.33
2018-04-29T07:36:47.833Z,16.90
2018-04-29T07:39:13.789Z,37.47
2018-04-29T07:41:39.602Z,21.30
2018-04-29T07:44:05.408Z,17.97
2018-04-29T07:46:31.248Z,17.87
2018-04-29T07:48:56.995Z,21.80
2018-04-29T07:51:22.781Z,20.13
2018-04-29T07:53:48.605Z,18.00
2018-04-29T07:56:14.422Z,16.13
2018-04-29T07:58:40.222Z,15.53
2018-04-29T08:01:06.026Z,17.20
2018-04-29T08:03:31.813Z,21.30
2018-04-29T08:05:57.609Z,18.30
2018-04-29T08:08:23.392Z,15.17
2018-04-29T08:10:49.224Z,17.47
2018-04-29T08:13:15.016Z,15.97
2018-04-29T08:15:40.868Z,18.33
2018-04-29T08:18:06.655Z,63.93
2018-04-29T08:20:32.475Z,26.93
2018-04-29T08:22:58.261Z,33.73
2018-04-29T08:25:24.049Z,32.03
2018-04-29T08:27:49.850Z,17.57
2018-04-29T08:30:15.667Z,17.63
2018-04-29T08:32:41.450Z,26.43
2018-04-29T08:35:07.241Z,19.83
2018-04-29T08:37:33.053Z,20.80
2018-04-29T08:39:58.856Z,27.97
2018-04-29T08:42:24.647Z,22.77
2018-04-29T08:44:50.528Z,19.80
2018-04-29T08:47:16.393Z,32.97
2018-04-29T08:49:42.206Z,19.30
2018-04-29T08:52:07.995Z,23.70
2018-04-29T08:54:33.814Z,19.93
2018-04-29T08:56:59.711Z,27.03
2018-04-29T08:59:25.501Z,22.83
2018-04-29T09:01:51.296Z,20.23
2018-04-29T09:04:17.102Z,28.57
2018-04-29T09:06:42.886Z,18.00
2018-04-29T09:09:08.774Z,28.30
2018-04-29T09:11:34.771Z,17.90
2018-04-29T09:14:00.852Z,26.70
2018-04-29T09:16:26.645Z,17.43
2018-04-29T09:18:52.453Z,14.83
2018-04-29T09:21:18.230Z,17.07
2018-04-29T09:23:44.018Z,21.40
2018-04-29T09:26:09.805Z,38.37
2018-04-29T09:28:35.785Z,13.00
2018-04-29T09:31:01.606Z,14.27
2018-04-29T09:33:27.407Z,16.93
2018-04-29T09:35:53.214Z,61.37
2018-04-29T09:38:19.000Z,15.00
2018-04-29T09:40:44.852Z,15.07
2018-04-29T09:43:10.653Z,17.13
2018-04-29T09:45:36.441Z,18.40
2018-04-29T09:48:02.265Z,17.27
2018-04-29T09:50:28.052Z,14.93
2018-04-29T09:52:53.841Z,14.20
2018-04-29T09:55:20.020Z,17.97
2018-04-29T09:57:45.828Z,19.60
2018-04-29T10:00:11.645Z,50.00
2018-04-29T10:02:43.617Z,62.03
2018-04-29T10:05:09.433Z,15.50
2018-04-29T10:07:35.222Z,23.93
2018-04-29T10:10:01.024Z,9.67
2018-04-29T10:12:27.261Z,28.63
2018-04-29T10:14:53.051Z,10.40
2018-04-29T10:17:18.842Z,12.77
2018-04-29T10:19:44.638Z,14.03
2018-04-29T10:22:10.432Z,13.73
2018-04-29T10:24:36.296Z,12.17
2018-04-29T10:27:02.045Z,13.57
2018-04-29T10:29:27.837Z,12.83
2018-04-29T10:31:53.633Z,11.10
2018-04-29T10:34:19.472Z,15.07
2018-04-29T10:36:45.250Z,11.20
2018-04-29T10:39:11.052Z,18.73
2018-04-29T10:41:36.845Z,10.37
2018-04-29T10:44:02.632Z,13.10
2018-04-29T10:46:28.422Z,11.90
2018-04-29T10:48:54.216Z,12.50
2018-04-29T10:51:20.340Z,16.90
2018-04-29T10:53:46.130Z,41.57
2018-04-29T10:56:11.934Z,11.97
2018-04-29T10:58:37.752Z,15.07
2018-04-29T11:01:03.719Z,26.97
2018-04-29T11:03:29.503Z,34.13
2018-04-29T11:05:55.285Z,12.67
2018-04-29T11:08:21.285Z,15.53
2018-04-29T11:10:47.085Z,22.23
2018-04-29T11:13:12.861Z,12.30
2018-04-29T11:15:38.666Z,21.87
2018-04-29T11:18:04.473Z,22.07
2018-04-29T11:20:30.276Z,25.03
2018-04-29T11:22:56.068Z,23.13
2018-04-29T11:25:21.861Z,15.73
2018-04-29T11:27:47.680Z,32.57
2018-04-29T11:30:13.457Z,18.27
2018-04-29T11:32:39.244Z,18.20
2018-04-29T11:35:05.054Z,47.07
2018-04-29T11:37:30.838Z,25.67
2018-04-29T11:39:56.627Z,39.63
2018-04-29T11:42:22.433Z,49.43
2018-04-29T11:44:48.246Z,29.10
2018-04-29T11:47:14.020Z,19.20
2018-04-29T11:49:39.790Z,17.47
2018-04-29T11:52:05.602Z,57.47
2018-04-29T11:54:31.389Z,25.60
2018-04-29T11:56:57.166Z,24.90
2018-04-29T11:59:23.212Z,25.23
2018-04-29T12:01:49.075Z,57.47
2018-04-29T12:04:14.797Z,36.07
2018-04-29T12:06:40.595Z,26.10
2018-04-29T12:09:06.394Z,41.10
2018-04-29T12:11:32.186Z,50.67
2018-04-29T12:13:57.979Z,26.53
2018-04-29T12:16:23.840Z,21.20
2018-04-29T12:18:49.609Z,26.57
2018-04-29T12:21:15.402Z,33.13
2018-04-29T12:23:41.181Z,26.90
2018-04-29T12:26:07.259Z,49.90
2018-04-29T12:28:33.063Z,26.73
2018-04-29T12:30:58.853Z,15.70
2018-04-29T12:33:24.693Z,29.50
2018-04-29T12:35:50.472Z,117.80
2018-04-29T12:38:16.263Z,52.40
2018-04-29T12:40:42.060Z,135.13
2018-04-29T12:43:07.850Z,61.90
2018-04-29T12:45:33.673Z,44.63
2018-04-29T12:47:59.481Z,21.00
2018-04-29T12:50:25.288Z,51.40
2018-04-29T12:52:51.069Z,15.33
2018-04-29T12:55:16.873Z,36.03
2018-04-29T12:57:42.984Z,17.90
2018-04-29T13:00:08.858Z,17.37
2018-04-29T13:02:34.575Z,26.63
2018-04-29T13:05:00.375Z,30.10
2018-04-29T13:07:26.157Z,14.07
2018-04-29T13:09:51.929Z,17.00
2018-04-29T13:12:17.732Z,15.23
2018-04-29T13:14:43.505Z,14.13
2018-04-29T13:17:09.296Z,20.00
2018-04-29T13:19:35.354Z,15.17
2018-04-29T13:22:01.137Z,13.57
2018-04-29T13:24:26.909Z,26.67
2018-04-29T13:26:52.694Z,15.83
2018-04-29T13:29:18.496Z,14.70
2018-04-29T13:31:44.564Z,14.50
2018-04-29T13:34:11.085Z,15.17
2018-04-29T13:36:36.869Z,18.40
2018-04-29T13:39:02.682Z,16.90
2018-04-29T13:41:28.545Z,17.33
2018-04-29T13:43:54.324Z,17.40
2018-04-29T13:46:20.215Z,13.83
2018-04-29T13:48:46.008Z,15.07
2018-04-29T13:51:11.802Z,13.93
2018-04-29T13:53:37.978Z,13.20
2018-04-29T13:56:03.776Z,17.63
2018-04-29T13:58:29.598Z,20.90
2018-04-29T14:00:55.478Z,18.33
2018-04-29T14:03:21.346Z,19.23
2018-04-29T14:05:47.132Z,27.37
2018-04-29T14:08:12.955Z,19.60
2018-04-29T14:10:38.799Z,22.03
2018-04-29T14:13:04.556Z,22.90
2018-04-29T14:15:30.341Z,23.87
2018-04-29T14:17:56.113Z,21.33
2018-04-29T14:20:21.925Z,16.27
2018-04-29T14:22:47.707Z,22.80
2018-04-29T14:25:13.496Z,19.53
2018-04-29T14:27:39.306Z,21.00
2018-04-29T14:30:05.101Z,32.27
2018-04-29T14:32:30.892Z,32.87
2018-04-29T14:34:56.684Z,31.37
2018-04-29T14:37:22.472Z,29.90
2018-04-29T14:39:48.254Z,17.67
2018-04-29T14:42:14.071Z,33.95
2018-04-29T14:44:39.857Z,31.83
2018-04-29T14:47:05.650Z,21.33
2018-04-29T14:49:31.557Z,32.70
2018-04-29T14:51:57.293Z,22.47
2018-04-29T14:54:23.094Z,40.30
2018-04-29T14:56:48.896Z,47.33
2018-04-29T14:59:14.693Z,45.80
2018-04-29T15:01:40.475Z,32.27
2018-04-29T15:04:06.292Z,30.63
2018-04-29T15:06:32.065Z,28.33
2018-04-29T15:08:57.833Z,20.63
2018-04-29T15:11:23.631Z,25.70
2018-04-29T15:13:49.458Z,28.50
2018-04-29T15:16:15.232Z,25.67
2018-04-29T15:18:53.441Z,24.67
2018-04-29T15:21:19.237Z,26.77
2018-04-29T15:23:45.026Z,25.63
2018-04-29T15:26:10.828Z,28.80
2018-04-29T15:28:36.614Z,31.73
2018-04-29T15:31:02.420Z,25.43
2018-04-29T15:33:28.225Z,28.83
2018-04-29T15:35:53.996Z,23.60
2018-04-29T15:38:19.786Z,48.70
2018-04-29T15:40:45.656Z,133.77
2018-04-29T15:43:11.405Z,26.37
2018-04-29T15:45:37.200Z,28.40
2018-04-29T15:48:02.998Z,24.67
2018-04-29T15:50:28.781Z,26.60
2018-04-29T15:52:54.569Z,26.60
2018-04-29T15:55:20.361Z,24.83
2018-04-29T15:57:46.164Z,25.97
2018-04-29T16:00:11.970Z,27.20
2018-04-29T16:02:37.766Z,24.43
2018-04-29T16:05:03.557Z,26.10
2018-04-29T16:07:29.353Z,24.70
2018-04-29T16:09:55.145Z,28.93
2018-04-29T16:12:21.219Z,31.53
2018-04-29T16:14:47.006Z,22.07
2018-04-29T16:17:12.797Z,25.87
2018-04-29T16:19:38.618Z,25.13
2018-04-29T16:22:04.429Z,23.00
2018-04-29T16:24:30.205Z,20.40
2018-04-29T16:26:56.270Z,20.70
2018-04-29T16:29:22.056Z,41.30
2018-04-29T16:31:47.846Z,44.43
2018-04-29T16:34:13.666Z,46.03
2018-04-29T16:36:39.465Z,67.93
2018-04-29T16:39:05.243Z,35.30
2018-04-29T16:41:31.037Z,37.30
2018-04-29T16:43:56.815Z,52.60
2018-04-29T16:46:22.743Z,31.67
2018-04-29T16:48:48.561Z,31.03
2018-04-29T16:51:14.367Z,31.03
2018-04-29T16:53:40.197Z,27.97
2018-04-29T16:56:05.996Z,36.93
2018-04-29T16:58:31.769Z,28.30
2018-04-29T17:00:57.557Z,28.53
2018-04-29T17:03:23.353Z,30.00
2018-04-29T17:05:49.169Z,25.67
2018-04-29T17:08:14.993Z,27.00
2018-04-29T17:10:40.796Z,27.63
2018-04-29T17:13:06.602Z,44.97
2018-04-29T17:15:32.393Z,31.50
2018-04-29T17:17:58.183Z,61.50
2018-04-29T17:20:23.969Z,41.23
2018-04-29T17:22:49.901Z,32.53
2018-04-29T17:25:15.727Z,36.33
2018-04-29T17:27:41.573Z,36.87
2018-04-29T17:30:07.355Z,26.73
2018-04-29T17:32:33.202Z,32.47
2018-04-29T17:34:58.991Z,35.70
2018-04-29T17:37:24.795Z,35.50
2018-04-29T17:39:50.770Z,25.27
2018-04-29T17:42:16.621Z,31.47
2018-04-29T17:44:42.590Z,32.90
2018-04-29T17:47:08.384Z,30.60
2018-04-29T17:49:34.199Z,100.43
2018-04-29T17:51:59.979Z,130.27
2018-04-29T17:54:25.761Z,68.23
2018-04-29T17:56:51.796Z,80.43
2018-04-29T17:59:17.618Z,41.73
2018-04-29T18:01:43.450Z,29.77
2018-04-29T18:04:09.241Z,37.00
2018-04-29T18:06:35.031Z,38.10
2018-04-29T18:09:00.958Z,39.53
2018-04-29T18:11:26.760Z,35.50
2018-04-29T18:13:52.533Z,38.30
2018-04-29T18:16:18.464Z,39.17
2018-04-29T18:18:45.243Z,38.47
2018-04-29T18:21:11.118Z,39.50
2018-04-29T18:23:36.910Z,48.13
2018-04-29T18:26:02.753Z,32.40
2018-04-29T18:28:28.677Z,46.40
2018-04-29T18:30:54.744Z,43.47
2018-04-29T18:33:20.548Z,35.97
2018-04-29T18:35:46.385Z,38.23
2018-04-29T18:38:12.174Z,74.27
2018-04-29T18:40:37.993Z,88.60
2018-04-29T18:43:03.787Z,55.97
2018-04-29T18:45:29.557Z,50.53
2018-04-29T18:47:55.517Z,62.03
2018-04-29T18:50:21.348Z,48.63
2018-04-29T18:52:47.338Z,42.43
2018-04-29T18:55:13.194Z,40.50
2018-04-29T18:57:39.001Z,38.90
2018-04-29T19:00:04.907Z,36.57
2018-04-29T19:02:30.721Z,36.50
2018-04-29T19:04:56.980Z,32.57
2018-04-29T19:07:22.765Z,34.43
2018-04-29T19:09:48.895Z,38.90
2018-04-29T19:12:14.733Z,41.50
2018-04-29T19:14:40.519Z,35.23
2018-04-29T19:17:06.450Z,33.13
2018-04-29T19:19:32.551Z,43.63
2018-04-29T19:21:58.389Z,35.20
2018-04-29T19:24:24.223Z,34.80
2018-04-29T19:26:50.049Z,42.77
2018-04-29T19:29:16.066Z,40.57
2018-04-29T19:31:41.910Z,36.27
2018-04-29T19:34:07.693Z,41.23
2018-04-29T19:36:33.537Z,39.57
2018-04-29T19:38:59.327Z,33.90
2018-04-29T19:41:25.118Z,31.87
2018-04-29T19:43:50.942Z,38.40
2018-04-29T19:46:16.726Z,38.20
2018-04-29T19:48:42.680Z,35.53
2018-04-29T19:51:08.469Z,39.10
2018-04-29T19:53:34.311Z,74.63
2018-04-29T19:56:00.177Z,62.83
2018-04-29T19:58:25.977Z,87.47
2018-04-29T20:00:51.799Z,66.87
2018-04-29T20:03:17.597Z,52.10
2018-04-29T20:05:43.559Z,40.07
2018-04-29T20:08:09.377Z,48.90
2018-04-29T20:10:35.190Z,84.23
2018-04-29T20:13:00.994Z,45.93
2018-04-29T20:15:26.807Z,42.63
2018-04-29T20:17:52.597Z,50.37
2018-04-29T20:20:18.470Z,64.37
2018-04-29T20:22:44.282Z,77.00
2018-04-29T20:25:10.322Z,64.83
2018-04-29T20:27:36.126Z,39.47
2018-04-29T20:30:02.035Z,41.70
2018-04-29T20:35:27.997Z,44.80
2018-04-29T20:37:53.880Z,43.90
2018-04-29T20:40:19.698Z,58.40
2018-04-29T20:42:45.479Z,40.47
2018-04-29T20:45:11.361Z,100.57
2018-04-29T20:47:37.170Z,42.13
2018-04-29T20:50:02.988Z,37.60
2018-04-29T20:52:28.774Z,40.13
2018-04-29T20:54:54.580Z,39.30
2018-04-29T20:57:20.607Z,36.20
2018-04-29T20:59:46.401Z,58.67
2018-04-29T21:02:12.441Z,50.97
2018-04-29T21:04:38.292Z,58.10
2018-04-29T21:07:04.088Z,42.90
2018-04-29T21:09:29.944Z,43.33
2018-04-29T21:11:55.847Z,47.00
2018-04-29T21:14:21.653Z,50.70
2018-04-29T21:16:47.566Z,43.93
2018-04-29T21:19:13.385Z,47.40
2018-04-29T21:21:39.165Z,47.97
2018-04-29T21:24:04.938Z,63.47
2018-04-29T21:26:30.753Z,57.17
2018-04-29T21:28:56.671Z,60.97
2018-04-29T21:31:22.446Z,49.90
2018-04-29T21:33:48.449Z,48.37
2018-04-29T21:36:14.261Z,60.03
2018-04-29T21:38:40.030Z,44.33
2018-04-29T21:41:05.858Z,52.07
2018-04-29T21:43:31.637Z,46.93
2018-04-29T21:45:57.596Z,50.13
2018-04-29T21:48:23.388Z,58.37
2018-04-29T21:50:49.331Z,53.13
2018-04-29T21:53:15.132Z,63.17
2018-04-29T21:55:40.919Z,48.67
2018-04-29T21:58:06.705Z,64.90
2018-04-29T22:00:32.749Z,50.27
2018-04-29T22:02:58.548Z,53.13
2018-04-29T22:05:24.329Z,42.10
2018-04-29T22:07:50.277Z,46.90
2018-04-29T22:10:16.060Z,48.47
2018-04-29T22:12:41.996Z,42.13
2018-04-29T22:15:07.822Z,46.67
2018-04-29T22:17:33.605Z,56.80
2018-04-29T22:19:59.385Z,54.40
2018-04-29T22:22:25.182Z,44.37
2018-04-29T22:24:51.012Z,41.97
2018-04-29T22:27:16.771Z,51.43
2018-04-29T22:29:42.580Z,46.33
2018-04-29T22:32:08.374Z,46.10
2018-04-29T22:34:34.176Z,49.43
2018-04-29T22:36:59.975Z,44.87
2018-04-29T22:39:25.764Z,56.47
2018-04-29T22:41:51.558Z,39.27
2018-04-29T22:44:17.344Z,44.90
2018-04-29T22:46:43.127Z,54.37
2018-04-29T22:49:08.928Z,46.40
2018-04-29T22:51:34.707Z,468.17
2018-04-29T22:54:00.504Z,403.53
2018-04-29T22:56:26.306Z,299.13
2018-04-29T22:58:52.096Z,136.40
2018-04-29T23:01:17.937Z,223.70
2018-04-29T23:03:43.673Z,176.40
2018-04-29T23:06:09.472Z,47.33
2018-04-29T23:08:35.265Z,53.53
2018-04-29T23:11:01.037Z,65.03
2018-04-29T23:13:26.840Z,41.40
2018-04-29T23:15:52.625Z,45.43
2018-04-29T23:18:18.409Z,41.87
2018-04-29T23:20:44.194Z,38.73
2018-04-29T23:23:09.972Z,39.07
2018-04-29T23:25:35.757Z,64.80
2018-04-29T23:28:01.541Z,46.73
2018-04-29T23:30:27.328Z,44.33
2018-04-29T23:32:53.124Z,35.47
2018-04-29T23:35:18.984Z,47.23
2018-04-29T23:37:44.726Z,37.70
2018-04-29T23:40:10.507Z,34.90
2018-04-29T23:42:36.290Z,39.57
2018-04-29T23:45:02.081Z,38.80
2018-04-29T23:47:27.888Z,40.07
2018-04-29T23:49:53.646Z,43.63
2018-04-29T23:52:19.448Z,38.53
2018-04-29T23:54:45.226Z,35.80
2018-04-29T23:57:11.042Z,39.63
2018-04-29T23:59:36.839Z,46.73
